sensor_id;sensor_type;location;lat;lon;timestamp;temperature;humidity
13585;DHT22;6863;48.402;9.994;2022-12-24T00:00:23;10.50;99.90
13585;DHT22;6863;48.402;9.994;2022-12-24T00:02:49;10.50;99.90
13585;DHT22;6863;48.402;9.994;2022-12-24T00:05:15;10.50;99.90
13585;DHT22;6863;48.402;9.994;2022-12-24T00:07:41;10.50;99.90
13585;DHT22;6863;48.402;9.994;2022-12-24T00:10:07;10.50;99.90
13585;DHT22;6863;48.402;9.994;2022-12-24T00:12:34;10.50;99.90
13585;DHT22;6863;48.402;9.994;2022-12-24T00:14:59;10.50;99.90
13585;DHT22;6863;48.402;9.994;2022-12-24T00:17:25;10.50;99.90
13585;DHT22;6863;48.402;9.994;2022-12-24T00:19:50;10.40;99.90
13585;DHT22;6863;48.402;9.994;2022-12-24T00:22:16;10.40;99.90
13585;DHT22;6863;48.402;9.994;2022-12-24T00:24:41;10.40;99.90
13585;DHT22;6863;48.402;9.994;2022-12-24T00:27:07;10.40;99.90
13585;DHT22;6863;48.402;9.994;2022-12-24T00:29:33;10.50;99.90
13585;DHT22;6863;48.402;9.994;2022-12-24T00:31:59;10.40;99.90
13585;DHT22;6863;48.402;9.994;2022-12-24T00:34:24;10.40;99.90
13585;DHT22;6863;48.402;9.994;2022-12-24T00:36:50;10.40;99.90
13585;DHT22;6863;48.402;9.994;2022-12-24T00:39:16;10.40;99.90
13585;DHT22;6863;48.402;9.994;2022-12-24T00:41:41;10.30;99.90
13585;DHT22;6863;48.402;9.994;2022-12-24T00:44:08;10.30;99.90
13585;DHT22;6863;48.402;9.994;2022-12-24T00:46:39;10.20;99.90
13585;DHT22;6863;48.402;9.994;2022-12-24T00:49:06;10.20;99.90
13585;DHT22;6863;48.402;9.994;2022-12-24T00:51:33;10.10;99.90
13585;DHT22;6863;48.402;9.994;2022-12-24T00:53:59;10.00;99.90
13585;DHT22;6863;48.402;9.994;2022-12-24T00:56:24;10.00;99.90
13585;DHT22;6863;48.402;9.994;2022-12-24T00:58:50;10.00;99.90
13585;DHT22;6863;48.402;9.994;2022-12-24T01:01:16;9.90;99.90
13585;DHT22;6863;48.402;9.994;2022-12-24T01:03:42;9.90;99.90
13585;DHT22;6863;48.402;9.994;2022-12-24T01:06:11;9.90;99.90
13585;DHT22;6863;48.402;9.994;2022-12-24T01:08:37;9.80;99.90
13585;DHT22;6863;48.402;9.994;2022-12-24T01:11:05;9.80;99.90
13585;DHT22;6863;48.402;9.994;2022-12-24T01:13:31;9.80;99.90
13585;DHT22;6863;48.402;9.994;2022-12-24T01:15:56;9.80;99.90
13585;DHT22;6863;48.402;9.994;2022-12-24T01:18:23;9.80;99.90
13585;DHT22;6863;48.402;9.994;2022-12-24T01:20:59;9.80;99.90
13585;DHT22;6863;48.402;9.994;2022-12-24T01:23:25;9.80;99.90
13585;DHT22;6863;48.402;9.994;2022-12-24T01:25:51;9.80;99.90
13585;DHT22;6863;48.402;9.994;2022-12-24T01:28:17;9.80;99.90
13585;DHT22;6863;48.402;9.994;2022-12-24T01:30:43;9.80;99.90
13585;DHT22;6863;48.402;9.994;2022-12-24T01:33:08;9.70;99.90
13585;DHT22;6863;48.402;9.994;2022-12-24T01:35:37;9.70;99.90
13585;DHT22;6863;48.402;9.994;2022-12-24T01:38:03;9.70;99.90
13585;DHT22;6863;48.402;9.994;2022-12-24T01:40:28;9.70;99.90
13585;DHT22;6863;48.402;9.994;2022-12-24T01:43:17;9.70;99.90
13585;DHT22;6863;48.402;9.994;2022-12-24T01:45:56;9.70;99.90
13585;DHT22;6863;48.402;9.994;2022-12-24T01:51:26;9.60;99.90
13585;DHT22;6863;48.402;9.994;2022-12-24T01:54:12;9.50;99.90
13585;DHT22;6863;48.402;9.994;2022-12-24T01:56:45;9.50;99.90
13585;DHT22;6863;48.402;9.994;2022-12-24T01:59:14;9.50;99.90
13585;DHT22;6863;48.402;9.994;2022-12-24T02:01:40;9.50;99.90
13585;DHT22;6863;48.402;9.994;2022-12-24T02:04:25;9.40;99.90
13585;DHT22;6863;48.402;9.994;2022-12-24T02:06:53;9.30;99.90
13585;DHT22;6863;48.402;9.994;2022-12-24T02:09:18;9.30;99.90
13585;DHT22;6863;48.402;9.994;2022-12-24T02:11:44;9.30;99.90
13585;DHT22;6863;48.402;9.994;2022-12-24T02:14:10;9.40;99.90
13585;DHT22;6863;48.402;9.994;2022-12-24T02:16:52;9.40;99.90
13585;DHT22;6863;48.402;9.994;2022-12-24T02:19:36;9.40;99.90
13585;DHT22;6863;48.402;9.994;2022-12-24T02:25:25;9.40;99.90
13585;DHT22;6863;48.402;9.994;2022-12-24T02:30:51;9.30;99.90
13585;DHT22;6863;48.402;9.994;2022-12-24T02:33:40;9.30;99.90
13585;DHT22;6863;48.402;9.994;2022-12-24T02:36:12;9.20;99.90
13585;DHT22;6863;48.402;9.994;2022-12-24T02:38:57;9.20;99.90
13585;DHT22;6863;48.402;9.994;2022-12-24T02:41:29;9.20;99.90
13585;DHT22;6863;48.402;9.994;2022-12-24T02:44:16;9.10;99.90
13585;DHT22;6863;48.402;9.994;2022-12-24T02:46:43;9.00;99.90
13585;DHT22;6863;48.402;9.994;2022-12-24T02:49:10;9.00;99.90
13585;DHT22;6863;48.402;9.994;2022-12-24T02:51:35;9.00;99.90
13585;DHT22;6863;48.402;9.994;2022-12-24T02:54:01;9.00;99.90
13585;DHT22;6863;48.402;9.994;2022-12-24T03:04:51;9.00;99.90
13585;DHT22;6863;48.402;9.994;2022-12-24T03:07:28;9.00;99.90
13585;DHT22;6863;48.402;9.994;2022-12-24T03:12:46;9.00;99.90
13585;DHT22;6863;48.402;9.994;2022-12-24T03:15:15;9.00;99.90
13585;DHT22;6863;48.402;9.994;2022-12-24T03:17:42;9.00;99.90
13585;DHT22;6863;48.402;9.994;2022-12-24T03:20:10;9.00;99.90
13585;DHT22;6863;48.402;9.994;2022-12-24T03:22:38;9.00;99.90
13585;DHT22;6863;48.402;9.994;2022-12-24T03:25:03;9.00;99.90
13585;DHT22;6863;48.402;9.994;2022-12-24T03:27:30;9.00;99.90
13585;DHT22;6863;48.402;9.994;2022-12-24T03:29:57;9.00;99.90
13585;DHT22;6863;48.402;9.994;2022-12-24T03:32:26;9.00;99.90
13585;DHT22;6863;48.402;9.994;2022-12-24T03:34:53;8.90;99.90
13585;DHT22;6863;48.402;9.994;2022-12-24T03:37:19;8.90;99.90
13585;DHT22;6863;48.402;9.994;2022-12-24T03:39:44;9.00;99.90
13585;DHT22;6863;48.402;9.994;2022-12-24T03:42:10;9.00;99.90
13585;DHT22;6863;48.402;9.994;2022-12-24T03:44:35;9.00;99.90
13585;DHT22;6863;48.402;9.994;2022-12-24T03:47:01;8.90;99.90
13585;DHT22;6863;48.402;9.994;2022-12-24T03:49:26;8.90;99.90
13585;DHT22;6863;48.402;9.994;2022-12-24T03:51:52;8.90;99.90
13585;DHT22;6863;48.402;9.994;2022-12-24T03:54:18;8.90;99.90
13585;DHT22;6863;48.402;9.994;2022-12-24T03:56:43;8.90;99.90
13585;DHT22;6863;48.402;9.994;2022-12-24T03:59:09;8.90;99.90
13585;DHT22;6863;48.402;9.994;2022-12-24T04:01:34;8.80;99.90
13585;DHT22;6863;48.402;9.994;2022-12-24T04:04:00;8.80;99.90
13585;DHT22;6863;48.402;9.994;2022-12-24T04:06:25;8.90;99.90
13585;DHT22;6863;48.402;9.994;2022-12-24T04:08:51;8.90;99.90
13585;DHT22;6863;48.402;9.994;2022-12-24T04:11:17;8.90;99.90
13585;DHT22;6863;48.402;9.994;2022-12-24T04:13:43;8.90;99.90
13585;DHT22;6863;48.402;9.994;2022-12-24T04:16:11;8.90;99.90
13585;DHT22;6863;48.402;9.994;2022-12-24T04:18:37;8.90;99.90
13585;DHT22;6863;48.402;9.994;2022-12-24T04:21:04;8.90;99.90
13585;DHT22;6863;48.402;9.994;2022-12-24T04:23:31;8.90;99.90
13585;DHT22;6863;48.402;9.994;2022-12-24T04:26:04;8.90;99.90
13585;DHT22;6863;48.402;9.994;2022-12-24T04:28:31;9.00;99.90
13585;DHT22;6863;48.402;9.994;2022-12-24T04:31:02;9.00;99.90
13585;DHT22;6863;48.402;9.994;2022-12-24T04:33:28;9.00;99.90
13585;DHT22;6863;48.402;9.994;2022-12-24T04:35:56;8.90;99.90
13585;DHT22;6863;48.402;9.994;2022-12-24T04:38:22;8.90;99.90
13585;DHT22;6863;48.402;9.994;2022-12-24T04:40:48;8.80;99.90
13585;DHT22;6863;48.402;9.994;2022-12-24T04:43:14;8.80;99.90
13585;DHT22;6863;48.402;9.994;2022-12-24T04:45:39;8.80;99.90
13585;DHT22;6863;48.402;9.994;2022-12-24T04:50:30;8.80;99.90
13585;DHT22;6863;48.402;9.994;2022-12-24T04:52:56;8.80;99.90
13585;DHT22;6863;48.402;9.994;2022-12-24T04:55:22;8.70;99.90
13585;DHT22;6863;48.402;9.994;2022-12-24T04:57:48;8.60;99.90
13585;DHT22;6863;48.402;9.994;2022-12-24T05:00:14;8.70;99.90
13585;DHT22;6863;48.402;9.994;2022-12-24T05:02:39;8.60;99.90
13585;DHT22;6863;48.402;9.994;2022-12-24T05:05:05;8.60;99.90
13585;DHT22;6863;48.402;9.994;2022-12-24T05:07:30;8.60;99.90
13585;DHT22;6863;48.402;9.994;2022-12-24T05:09:57;8.70;99.90
13585;DHT22;6863;48.402;9.994;2022-12-24T05:12:23;8.60;99.90
13585;DHT22;6863;48.402;9.994;2022-12-24T05:14:49;8.50;99.90
13585;DHT22;6863;48.402;9.994;2022-12-24T05:17:14;8.50;99.90
13585;DHT22;6863;48.402;9.994;2022-12-24T05:19:40;8.50;99.90
13585;DHT22;6863;48.402;9.994;2022-12-24T05:22:05;8.50;99.90
13585;DHT22;6863;48.402;9.994;2022-12-24T05:24:49;8.40;99.90
13585;DHT22;6863;48.402;9.994;2022-12-24T05:27:33;8.40;99.90
13585;DHT22;6863;48.402;9.994;2022-12-24T05:29:59;8.40;99.90
13585;DHT22;6863;48.402;9.994;2022-12-24T05:32:25;8.40;99.90
13585;DHT22;6863;48.402;9.994;2022-12-24T05:34:51;8.40;99.90
13585;DHT22;6863;48.402;9.994;2022-12-24T05:37:16;8.40;99.90
13585;DHT22;6863;48.402;9.994;2022-12-24T05:39:42;8.30;99.90
13585;DHT22;6863;48.402;9.994;2022-12-24T05:42:07;8.30;99.90
13585;DHT22;6863;48.402;9.994;2022-12-24T05:44:33;8.20;99.90
13585;DHT22;6863;48.402;9.994;2022-12-24T05:46:58;8.20;99.90
13585;DHT22;6863;48.402;9.994;2022-12-24T05:49:24;8.20;99.90
13585;DHT22;6863;48.402;9.994;2022-12-24T05:51:49;8.30;99.90
13585;DHT22;6863;48.402;9.994;2022-12-24T05:54:15;8.30;99.90
13585;DHT22;6863;48.402;9.994;2022-12-24T05:56:41;8.30;99.90
13585;DHT22;6863;48.402;9.994;2022-12-24T05:59:06;8.20;99.90
13585;DHT22;6863;48.402;9.994;2022-12-24T06:01:32;8.20;99.90
13585;DHT22;6863;48.402;9.994;2022-12-24T06:03:57;8.20;99.90
13585;DHT22;6863;48.402;9.994;2022-12-24T06:06:25;8.20;99.90
13585;DHT22;6863;48.402;9.994;2022-12-24T06:08:52;8.30;99.90
13585;DHT22;6863;48.402;9.994;2022-12-24T06:11:20;8.30;99.90
13585;DHT22;6863;48.402;9.994;2022-12-24T06:13:46;8.30;99.90
13585;DHT22;6863;48.402;9.994;2022-12-24T06:16:15;8.30;99.90
13585;DHT22;6863;48.402;9.994;2022-12-24T06:18:41;8.30;99.90
13585;DHT22;6863;48.402;9.994;2022-12-24T06:21:08;8.30;99.90
13585;DHT22;6863;48.402;9.994;2022-12-24T06:23:36;8.40;99.90
13585;DHT22;6863;48.402;9.994;2022-12-24T06:26:02;8.40;99.90
13585;DHT22;6863;48.402;9.994;2022-12-24T06:28:30;8.50;99.90
13585;DHT22;6863;48.402;9.994;2022-12-24T06:30:57;8.50;99.90
13585;DHT22;6863;48.402;9.994;2022-12-24T06:33:22;8.50;99.90
13585;DHT22;6863;48.402;9.994;2022-12-24T06:35:48;8.50;99.90
13585;DHT22;6863;48.402;9.994;2022-12-24T06:38:14;8.60;99.90
13585;DHT22;6863;48.402;9.994;2022-12-24T06:40:42;8.60;99.90
13585;DHT22;6863;48.402;9.994;2022-12-24T06:43:08;8.60;99.90
13585;DHT22;6863;48.402;9.994;2022-12-24T06:45:34;8.60;99.90
13585;DHT22;6863;48.402;9.994;2022-12-24T06:50:25;8.60;99.90
13585;DHT22;6863;48.402;9.994;2022-12-24T06:52:51;8.50;99.90
13585;DHT22;6863;48.402;9.994;2022-12-24T06:55:17;8.50;99.90
13585;DHT22;6863;48.402;9.994;2022-12-24T06:57:42;8.50;99.90
13585;DHT22;6863;48.402;9.994;2022-12-24T07:00:09;8.50;99.90
13585;DHT22;6863;48.402;9.994;2022-12-24T07:02:39;8.40;99.90
13585;DHT22;6863;48.402;9.994;2022-12-24T07:05:05;8.40;99.90
13585;DHT22;6863;48.402;9.994;2022-12-24T07:07:31;8.40;99.90
13585;DHT22;6863;48.402;9.994;2022-12-24T07:09:57;8.40;99.90
13585;DHT22;6863;48.402;9.994;2022-12-24T07:12:22;8.50;99.90
13585;DHT22;6863;48.402;9.994;2022-12-24T07:14:48;8.50;99.90
13585;DHT22;6863;48.402;9.994;2022-12-24T07:17:13;8.40;99.90
13585;DHT22;6863;48.402;9.994;2022-12-24T07:19:39;8.40;99.90
13585;DHT22;6863;48.402;9.994;2022-12-24T07:22:04;8.40;99.90
13585;DHT22;6863;48.402;9.994;2022-12-24T07:24:30;8.40;99.90
13585;DHT22;6863;48.402;9.994;2022-12-24T07:26:55;8.40;99.90
13585;DHT22;6863;48.402;9.994;2022-12-24T07:29:24;8.40;99.90
13585;DHT22;6863;48.402;9.994;2022-12-24T07:31:49;8.40;99.90
13585;DHT22;6863;48.402;9.994;2022-12-24T07:34:15;8.40;99.90
13585;DHT22;6863;48.402;9.994;2022-12-24T07:36:40;8.40;99.90
13585;DHT22;6863;48.402;9.994;2022-12-24T07:39:06;8.40;99.90
13585;DHT22;6863;48.402;9.994;2022-12-24T07:41:32;8.50;99.90
13585;DHT22;6863;48.402;9.994;2022-12-24T07:43:57;8.50;99.90
13585;DHT22;6863;48.402;9.994;2022-12-24T07:46:23;8.50;99.90
13585;DHT22;6863;48.402;9.994;2022-12-24T07:48:48;8.60;99.90
13585;DHT22;6863;48.402;9.994;2022-12-24T07:51:14;8.60;99.90
13585;DHT22;6863;48.402;9.994;2022-12-24T07:53:39;8.60;99.90
13585;DHT22;6863;48.402;9.994;2022-12-24T07:56:15;8.60;99.90
13585;DHT22;6863;48.402;9.994;2022-12-24T07:58:41;8.60;99.90
13585;DHT22;6863;48.402;9.994;2022-12-24T08:01:07;8.70;99.90
13585;DHT22;6863;48.402;9.994;2022-12-24T08:03:33;8.60;99.90
13585;DHT22;6863;48.402;9.994;2022-12-24T08:05:59;8.70;99.90
13585;DHT22;6863;48.402;9.994;2022-12-24T08:08:24;8.70;99.90
13585;DHT22;6863;48.402;9.994;2022-12-24T08:10:50;8.70;99.90
13585;DHT22;6863;48.402;9.994;2022-12-24T08:13:16;8.70;99.90
13585;DHT22;6863;48.402;9.994;2022-12-24T08:15:43;8.80;99.90
13585;DHT22;6863;48.402;9.994;2022-12-24T08:18:09;8.80;99.90
13585;DHT22;6863;48.402;9.994;2022-12-24T08:20:39;8.80;99.90
13585;DHT22;6863;48.402;9.994;2022-12-24T08:23:07;8.90;99.90
13585;DHT22;6863;48.402;9.994;2022-12-24T08:25:33;8.90;99.90
13585;DHT22;6863;48.402;9.994;2022-12-24T08:27:59;9.00;99.90
13585;DHT22;6863;48.402;9.994;2022-12-24T08:30:24;9.10;99.90
13585;DHT22;6863;48.402;9.994;2022-12-24T08:32:50;9.10;99.90
13585;DHT22;6863;48.402;9.994;2022-12-24T08:35:15;9.30;99.90
13585;DHT22;6863;48.402;9.994;2022-12-24T08:37:41;9.40;99.90
13585;DHT22;6863;48.402;9.994;2022-12-24T08:40:07;9.50;99.90
13585;DHT22;6863;48.402;9.994;2022-12-24T08:42:33;9.50;99.90
13585;DHT22;6863;48.402;9.994;2022-12-24T08:44:59;9.60;99.90
13585;DHT22;6863;48.402;9.994;2022-12-24T08:47:24;9.60;99.90
13585;DHT22;6863;48.402;9.994;2022-12-24T08:49:50;9.70;99.90
13585;DHT22;6863;48.402;9.994;2022-12-24T08:52:15;9.70;99.90
13585;DHT22;6863;48.402;9.994;2022-12-24T08:54:41;9.70;99.90
13585;DHT22;6863;48.402;9.994;2022-12-24T08:57:06;9.70;99.90
13585;DHT22;6863;48.402;9.994;2022-12-24T08:59:32;9.70;99.90
13585;DHT22;6863;48.402;9.994;2022-12-24T09:01:57;9.70;99.90
13585;DHT22;6863;48.402;9.994;2022-12-24T09:04:23;9.60;99.90
13585;DHT22;6863;48.402;9.994;2022-12-24T09:06:49;9.60;99.90
13585;DHT22;6863;48.402;9.994;2022-12-24T09:09:14;9.70;99.90
13585;DHT22;6863;48.402;9.994;2022-12-24T09:11:40;9.70;99.90
13585;DHT22;6863;48.402;9.994;2022-12-24T09:14:05;9.70;99.90
13585;DHT22;6863;48.402;9.994;2022-12-24T09:16:31;9.80;99.90
13585;DHT22;6863;48.402;9.994;2022-12-24T09:18:57;9.70;99.90
13585;DHT22;6863;48.402;9.994;2022-12-24T09:21:23;9.80;99.90
13585;DHT22;6863;48.402;9.994;2022-12-24T09:23:49;9.70;99.90
13585;DHT22;6863;48.402;9.994;2022-12-24T09:26:20;9.70;99.90
13585;DHT22;6863;48.402;9.994;2022-12-24T09:28:46;9.80;99.90
13585;DHT22;6863;48.402;9.994;2022-12-24T09:31:12;10.10;99.90
13585;DHT22;6863;48.402;9.994;2022-12-24T09:33:39;10.80;99.90
13585;DHT22;6863;48.402;9.994;2022-12-24T09:36:06;12.70;99.90
13585;DHT22;6863;48.402;9.994;2022-12-24T09:38:32;14.70;99.40
13585;DHT22;6863;48.402;9.994;2022-12-24T09:40:59;16.00;95.30
13585;DHT22;6863;48.402;9.994;2022-12-24T09:43:28;16.60;93.40
13585;DHT22;6863;48.402;9.994;2022-12-24T09:46:27;16.60;92.40
13585;DHT22;6863;48.402;9.994;2022-12-24T09:49:02;16.30;92.30
13585;DHT22;6863;48.402;9.994;2022-12-24T09:51:35;16.20;92.90
13585;DHT22;6863;48.402;9.994;2022-12-24T09:54:23;15.30;93.80
13585;DHT22;6863;48.402;9.994;2022-12-24T09:56:50;15.60;95.00
13585;DHT22;6863;48.402;9.994;2022-12-24T09:59:40;15.90;93.90
13585;DHT22;6863;48.402;9.994;2022-12-24T10:02:18;14.50;95.50
13585;DHT22;6863;48.402;9.994;2022-12-24T10:04:46;13.70;97.50
13585;DHT22;6863;48.402;9.994;2022-12-24T10:10:27;13.20;99.50
13585;DHT22;6863;48.402;9.994;2022-12-24T10:13:01;13.10;99.60
13585;DHT22;6863;48.402;9.994;2022-12-24T10:16:11;13.90;99.00
13585;DHT22;6863;48.402;9.994;2022-12-24T10:21:46;12.80;99.40
13585;DHT22;6863;48.402;9.994;2022-12-24T10:26:45;13.80;98.90
13585;DHT22;6863;48.402;9.994;2022-12-24T10:29:35;15.70;96.60
13585;DHT22;6863;48.402;9.994;2022-12-24T10:34:45;16.00;93.60
13585;DHT22;6863;48.402;9.994;2022-12-24T10:37:16;15.30;94.20
13585;DHT22;6863;48.402;9.994;2022-12-24T10:39:43;14.20;95.80
13585;DHT22;6863;48.402;9.994;2022-12-24T10:42:10;13.60;96.90
13585;DHT22;6863;48.402;9.994;2022-12-24T10:44:37;13.20;98.30
13585;DHT22;6863;48.402;9.994;2022-12-24T10:47:08;12.60;98.90
13585;DHT22;6863;48.402;9.994;2022-12-24T10:49:52;12.00;99.90
13585;DHT22;6863;48.402;9.994;2022-12-24T10:52:26;11.60;99.90
13585;DHT22;6863;48.402;9.994;2022-12-24T10:57:35;10.90;99.90
13585;DHT22;6863;48.402;9.994;2022-12-24T11:00:02;10.80;99.90
13585;DHT22;6863;48.402;9.994;2022-12-24T11:02:34;10.80;99.90
13585;DHT22;6863;48.402;9.994;2022-12-24T11:05:03;11.00;99.90
13585;DHT22;6863;48.402;9.994;2022-12-24T11:07:30;11.10;99.90
13585;DHT22;6863;48.402;9.994;2022-12-24T11:10:05;11.20;99.90
13585;DHT22;6863;48.402;9.994;2022-12-24T11:12:34;11.50;99.90
13585;DHT22;6863;48.402;9.994;2022-12-24T11:15:29;11.50;99.90
13585;DHT22;6863;48.402;9.994;2022-12-24T11:17:59;11.30;99.90
13585;DHT22;6863;48.402;9.994;2022-12-24T11:20:32;11.30;99.90
13585;DHT22;6863;48.402;9.994;2022-12-24T11:22:59;11.10;99.90
13585;DHT22;6863;48.402;9.994;2022-12-24T11:25:28;11.00;99.90
13585;DHT22;6863;48.402;9.994;2022-12-24T11:28:18;10.90;99.90
13585;DHT22;6863;48.402;9.994;2022-12-24T11:33:56;10.80;99.90
13585;DHT22;6863;48.402;9.994;2022-12-24T11:36:23;10.90;99.90
13585;DHT22;6863;48.402;9.994;2022-12-24T11:38:53;11.00;99.90
13585;DHT22;6863;48.402;9.994;2022-12-24T11:41:19;11.00;99.90
13585;DHT22;6863;48.402;9.994;2022-12-24T11:43:56;11.20;99.90
13585;DHT22;6863;48.402;9.994;2022-12-24T11:51:45;11.50;99.90
13585;DHT22;6863;48.402;9.994;2022-12-24T11:54:32;11.60;99.90
13585;DHT22;6863;48.402;9.994;2022-12-24T11:57:00;11.30;99.90
13585;DHT22;6863;48.402;9.994;2022-12-24T11:59:36;11.30;99.90
13585;DHT22;6863;48.402;9.994;2022-12-24T12:02:30;11.20;99.90
13585;DHT22;6863;48.402;9.994;2022-12-24T12:05:08;11.10;99.90
13585;DHT22;6863;48.402;9.994;2022-12-24T12:07:37;11.40;99.90
13585;DHT22;6863;48.402;9.994;2022-12-24T12:12:45;11.50;99.90
13585;DHT22;6863;48.402;9.994;2022-12-24T12:15:11;11.60;99.90
13585;DHT22;6863;48.402;9.994;2022-12-24T12:18:22;12.50;99.90
13585;DHT22;6863;48.402;9.994;2022-12-24T12:20:47;14.20;99.10
13585;DHT22;6863;48.402;9.994;2022-12-24T12:23:28;14.80;97.30
13585;DHT22;6863;48.402;9.994;2022-12-24T12:28:27;14.10;97.20
13585;DHT22;6863;48.402;9.994;2022-12-24T12:33:38;13.60;97.10
13585;DHT22;6863;48.402;9.994;2022-12-24T12:36:07;12.70;98.70
13585;DHT22;6863;48.402;9.994;2022-12-24T12:38:34;12.30;99.90
13585;DHT22;6863;48.402;9.994;2022-12-24T12:52:02;10.70;99.90
13585;DHT22;6863;48.402;9.994;2022-12-24T12:54:32;10.50;99.90
13585;DHT22;6863;48.402;9.994;2022-12-24T12:57:04;10.60;99.90
13585;DHT22;6863;48.402;9.994;2022-12-24T12:59:47;10.90;99.90
13585;DHT22;6863;48.402;9.994;2022-12-24T13:02:35;10.90;99.90
13585;DHT22;6863;48.402;9.994;2022-12-24T13:05:28;10.80;99.90
13585;DHT22;6863;48.402;9.994;2022-12-24T13:13:59;10.50;99.90
13585;DHT22;6863;48.402;9.994;2022-12-24T13:21:45;10.30;99.90
13585;DHT22;6863;48.402;9.994;2022-12-24T13:27:18;10.60;99.90
13585;DHT22;6863;48.402;9.994;2022-12-24T13:32:38;10.70;99.90
13585;DHT22;6863;48.402;9.994;2022-12-24T13:35:28;10.80;99.90
13585;DHT22;6863;48.402;9.994;2022-12-24T13:38:28;10.60;99.90
13585;DHT22;6863;48.402;9.994;2022-12-24T13:40:55;10.40;99.90
13585;DHT22;6863;48.402;9.994;2022-12-24T13:47:00;10.40;99.90
13585;DHT22;6863;48.402;9.994;2022-12-24T13:57:33;10.50;99.90
13585;DHT22;6863;48.402;9.994;2022-12-24T14:03:16;10.60;99.90
13585;DHT22;6863;48.402;9.994;2022-12-24T14:05:36;10.60;99.90
13585;DHT22;6863;48.402;9.994;2022-12-24T14:08:05;10.70;99.90
13585;DHT22;6863;48.402;9.994;2022-12-24T14:10:44;10.80;99.90
13585;DHT22;6863;48.402;9.994;2022-12-24T14:18:57;10.70;99.90
13585;DHT22;6863;48.402;9.994;2022-12-24T14:21:36;10.70;99.90
13585;DHT22;6863;48.402;9.994;2022-12-24T14:24:14;10.80;99.90
13585;DHT22;6863;48.402;9.994;2022-12-24T14:26:47;10.70;99.90
13585;DHT22;6863;48.402;9.994;2022-12-24T14:29:33;10.60;99.90
13585;DHT22;6863;48.402;9.994;2022-12-24T14:32:01;10.50;99.90
13585;DHT22;6863;48.402;9.994;2022-12-24T14:34:36;10.50;99.90
13585;DHT22;6863;48.402;9.994;2022-12-24T14:37:02;10.50;99.90
13585;DHT22;6863;48.402;9.994;2022-12-24T14:39:32;10.40;99.90
13585;DHT22;6863;48.402;9.994;2022-12-24T14:44:58;10.00;99.90
13585;DHT22;6863;48.402;9.994;2022-12-24T14:47:36;9.90;99.90
13585;DHT22;6863;48.402;9.994;2022-12-24T14:55:38;9.60;99.90
13585;DHT22;6863;48.402;9.994;2022-12-24T14:58:18;9.50;99.90
13585;DHT22;6863;48.402;9.994;2022-12-24T15:00:44;9.30;99.90
13585;DHT22;6863;48.402;9.994;2022-12-24T15:03:14;9.10;99.90
13585;DHT22;6863;48.402;9.994;2022-12-24T15:05:41;9.00;99.90
13585;DHT22;6863;48.402;9.994;2022-12-24T15:08:18;9.00;99.90
13585;DHT22;6863;48.402;9.994;2022-12-24T15:10:58;8.90;99.90
13585;DHT22;6863;48.402;9.994;2022-12-24T15:13:33;8.80;99.90
13585;DHT22;6863;48.402;9.994;2022-12-24T15:16:01;8.70;99.90
13585;DHT22;6863;48.402;9.994;2022-12-24T15:18:30;8.60;99.90
13585;DHT22;6863;48.402;9.994;2022-12-24T15:21:01;8.60;99.90
13585;DHT22;6863;48.402;9.994;2022-12-24T15:23:34;8.50;99.90
13585;DHT22;6863;48.402;9.994;2022-12-24T15:28:35;8.40;99.90
13585;DHT22;6863;48.402;9.994;2022-12-24T15:31:16;8.40;99.90
13585;DHT22;6863;48.402;9.994;2022-12-24T15:33:47;8.30;99.90
13585;DHT22;6863;48.402;9.994;2022-12-24T15:36:27;8.30;99.90
13585;DHT22;6863;48.402;9.994;2022-12-24T15:38:55;8.30;99.90
13585;DHT22;6863;48.402;9.994;2022-12-24T15:41:25;8.30;99.90
13585;DHT22;6863;48.402;9.994;2022-12-24T15:43:53;8.30;99.90
13585;DHT22;6863;48.402;9.994;2022-12-24T15:46:25;8.30;99.90
13585;DHT22;6863;48.402;9.994;2022-12-24T15:48:53;8.40;99.90
13585;DHT22;6863;48.402;9.994;2022-12-24T15:51:34;8.40;99.90
13585;DHT22;6863;48.402;9.994;2022-12-24T15:54:03;8.30;99.90
13585;DHT22;6863;48.402;9.994;2022-12-24T15:59:20;8.40;99.90
13585;DHT22;6863;48.402;9.994;2022-12-24T16:01:48;8.40;99.90
13585;DHT22;6863;48.402;9.994;2022-12-24T16:04:23;8.40;99.90
13585;DHT22;6863;48.402;9.994;2022-12-24T16:07:00;8.30;99.90
13585;DHT22;6863;48.402;9.994;2022-12-24T16:12:09;8.40;99.90
13585;DHT22;6863;48.402;9.994;2022-12-24T16:14:39;8.30;99.90
13585;DHT22;6863;48.402;9.994;2022-12-24T16:17:20;8.30;99.90
13585;DHT22;6863;48.402;9.994;2022-12-24T16:19:51;8.30;99.90
13585;DHT22;6863;48.402;9.994;2022-12-24T16:22:19;8.30;99.90
13585;DHT22;6863;48.402;9.994;2022-12-24T16:25:00;8.20;99.90
13585;DHT22;6863;48.402;9.994;2022-12-24T16:27:26;8.20;99.90
13585;DHT22;6863;48.402;9.994;2022-12-24T16:29:53;8.20;99.90
13585;DHT22;6863;48.402;9.994;2022-12-24T16:32:32;8.10;99.90
13585;DHT22;6863;48.402;9.994;2022-12-24T16:34:59;8.10;99.90
13585;DHT22;6863;48.402;9.994;2022-12-24T16:37:25;8.10;99.90
13585;DHT22;6863;48.402;9.994;2022-12-24T16:39:51;8.10;99.90
13585;DHT22;6863;48.402;9.994;2022-12-24T16:42:17;8.10;99.90
13585;DHT22;6863;48.402;9.994;2022-12-24T16:45:04;8.10;99.90
13585;DHT22;6863;48.402;9.994;2022-12-24T16:47:34;8.00;99.90
13585;DHT22;6863;48.402;9.994;2022-12-24T16:50:01;8.10;99.90
13585;DHT22;6863;48.402;9.994;2022-12-24T16:52:29;8.10;99.90
13585;DHT22;6863;48.402;9.994;2022-12-24T16:54:55;8.10;99.90
13585;DHT22;6863;48.402;9.994;2022-12-24T16:57:22;8.10;99.90
13585;DHT22;6863;48.402;9.994;2022-12-24T16:59:47;8.10;99.90
13585;DHT22;6863;48.402;9.994;2022-12-24T17:02:16;8.10;99.90
13585;DHT22;6863;48.402;9.994;2022-12-24T17:04:42;8.10;99.90
13585;DHT22;6863;48.402;9.994;2022-12-24T17:07:12;8.00;99.90
13585;DHT22;6863;48.402;9.994;2022-12-24T17:09:38;8.00;99.90
13585;DHT22;6863;48.402;9.994;2022-12-24T17:12:04;8.10;99.90
13585;DHT22;6863;48.402;9.994;2022-12-24T17:14:30;8.00;99.90
13585;DHT22;6863;48.402;9.994;2022-12-24T17:16:56;8.00;99.90
13585;DHT22;6863;48.402;9.994;2022-12-24T17:19:22;8.00;99.90
13585;DHT22;6863;48.402;9.994;2022-12-24T17:21:47;8.00;99.90
13585;DHT22;6863;48.402;9.994;2022-12-24T17:24:13;8.00;99.90
13585;DHT22;6863;48.402;9.994;2022-12-24T17:26:39;8.00;99.90
13585;DHT22;6863;48.402;9.994;2022-12-24T17:29:04;7.90;99.90
13585;DHT22;6863;48.402;9.994;2022-12-24T17:31:31;7.90;99.90
13585;DHT22;6863;48.402;9.994;2022-12-24T17:33:57;8.00;99.90
13585;DHT22;6863;48.402;9.994;2022-12-24T17:36:24;7.90;99.90
13585;DHT22;6863;48.402;9.994;2022-12-24T17:38:50;7.90;99.90
13585;DHT22;6863;48.402;9.994;2022-12-24T17:41:18;7.90;99.90
13585;DHT22;6863;48.402;9.994;2022-12-24T17:43:44;7.90;99.90
13585;DHT22;6863;48.402;9.994;2022-12-24T17:46:13;7.90;99.90
13585;DHT22;6863;48.402;9.994;2022-12-24T17:48:40;7.90;99.90
13585;DHT22;6863;48.402;9.994;2022-12-24T17:51:09;7.90;99.90
13585;DHT22;6863;48.402;9.994;2022-12-24T17:53:37;8.00;99.90
13585;DHT22;6863;48.402;9.994;2022-12-24T17:56:03;8.00;99.90
13585;DHT22;6863;48.402;9.994;2022-12-24T17:58:30;7.90;99.90
13585;DHT22;6863;48.402;9.994;2022-12-24T18:00:56;7.90;99.90
13585;DHT22;6863;48.402;9.994;2022-12-24T18:03:22;7.90;99.90
13585;DHT22;6863;48.402;9.994;2022-12-24T18:05:48;7.90;99.90
13585;DHT22;6863;48.402;9.994;2022-12-24T18:08:21;7.90;99.90
13585;DHT22;6863;48.402;9.994;2022-12-24T18:10:47;7.80;99.90